NCAR-RAP Real-Time Weather Data

Output produced by METARs form (17 July 2018  04:05 UTC)
found at http://weather.rap.ucar.edu/surface/
 
Conditions at: KSRQ observed 17 July 2018  03:53 UTC
Temperature: 27.8°C (82°F)
Dewpoint: 24.4°C (76°F) [RH = 82%]
Pressure (altimeter): 30.07 inches Hg (1018.4 mb)
[Sea-level pressure: 1018.0 mb]
Winds: calm
Visibility: 10 or more miles (16+ km)
Ceiling: at least 12,000 feet AGL
Clouds: scattered clouds at 3100 feet AGL
Present Weather: automated observation with no human augmentation;
there may or may not be significant weather present at this time
KSRQ 170353Z AUTO 00000KT 10SM SCT031 28/24 A3007 RMK AO2 SLP180 T02780244

Conditions at: KSRQ observed 17 July 2018  03:45 UTC
Temperature: 27.8°C (82°F)
Dewpoint: 24.4°C (76°F) [RH = 82%]
Pressure (altimeter): 30.07 inches Hg (1018.4 mb)
Winds: calm
Visibility: 10 or more miles (16+ km)
Ceiling: at least 12,000 feet AGL
Clouds: few clouds at 2700 feet AGL
scattered clouds at 3100 feet AGL
Present Weather: automated observation with no human augmentation;
there may or may not be significant weather present at this time
KSRQ 170345Z AUTO 00000KT 10SM FEW027 SCT031 28/24 A3007 RMK AO2 T02780244

Conditions at: KSRQ observed 17 July 2018  03:36 UTC
Temperature: 28.3°C (83°F)
Dewpoint: 23.9°C (75°F) [RH = 77%]
Pressure (altimeter): 30.06 inches Hg (1018.0 mb)
Winds: calm
Visibility: 10 or more miles (16+ km)
Ceiling: 2900 feet AGL
Clouds: broken clouds at 2900 feet AGL
Present Weather: automated observation with no human augmentation;
there may or may not be significant weather present at this time
KSRQ 170336Z AUTO 00000KT 10SM BKN029 28/24 A3006 RMK AO2 T02830239

Conditions at: KSRQ observed 17 July 2018  02:53 UTC
Temperature: 28.9°C (84°F)
Dewpoint: 23.9°C (75°F) [RH = 74%]
Pressure (altimeter): 30.06 inches Hg (1018.0 mb)
[Sea-level pressure: 1017.9 mb]
Winds: calm
Visibility: 10 or more miles (16+ km)
Ceiling: at least 12,000 feet AGL
Clouds: scattered clouds at 3000 feet AGL
Present Weather: no significant weather observed at this time
KSRQ 170253Z 00000KT 10SM SCT030 29/24 A3006 RMK AO2 SLP179 T02890239 51013

Conditions at: KSRQ observed 17 July 2018  01:53 UTC
Temperature: 28.9°C (84°F)
Dewpoint: 23.3°C (74°F) [RH = 72%]
Pressure (altimeter): 30.06 inches Hg (1018.0 mb)
[Sea-level pressure: 1017.7 mb]
Winds: from the WNW (300 degrees) at 5 MPH (4 knots; 2.1 m/s)
Visibility: 10 or more miles (16+ km)
Ceiling: at least 12,000 feet AGL
Clouds: sky clear below 12,000 feet AGL
Present Weather: no significant weather observed at this time
KSRQ 170153Z 30004KT 10SM CLR 29/23 A3006 RMK AO2 SLP177 T02890233

Conditions at: KSRQ observed 17 July 2018  00:53 UTC
Temperature: 30.0°C (86°F)
Dewpoint: 23.9°C (75°F) [RH = 70%]
Pressure (altimeter): 30.04 inches Hg (1017.4 mb)
[Sea-level pressure: 1017.2 mb]
Winds: from the W (280 degrees) at 7 MPH (6 knots; 3.1 m/s)
Visibility: 10 or more miles (16+ km)
Ceiling: at least 12,000 feet AGL
Clouds: few clouds at 2900 feet AGL
Present Weather: no significant weather observed at this time
KSRQ 170053Z 28006KT 10SM FEW029 30/24 A3004 RMK AO2 SLP172 T03000239

Conditions at: KSRQ observed 16 July 2018  23:53 UTC
Temperature: 30.0°C (86°F)
Dewpoint: 23.9°C (75°F) [RH = 70%]
Pressure (altimeter): 30.03 inches Hg (1017.0 mb)
[Sea-level pressure: 1016.6 mb]
Winds: from the W (270 degrees) at 8 MPH (7 knots; 3.6 m/s)
Visibility: 10 or more miles (16+ km)
Ceiling: at least 12,000 feet AGL
Clouds: sky clear below 12,000 feet AGL
Present Weather: no significant weather observed at this time
KSRQ 162353Z 27007KT 10SM CLR 30/24 A3003 RMK AO2 SLP166 T03000239 10328 20300 55002

Conditions at: KSRQ observed 16 July 2018  22:53 UTC
Temperature: 31.1°C (88°F)
Dewpoint: 23.9°C (75°F) [RH = 66%]
Pressure (altimeter): 30.02 inches Hg (1016.7 mb)
[Sea-level pressure: 1016.5 mb]
Winds: from the W (270 degrees) at 8 MPH (7 knots; 3.6 m/s)
Visibility: 10 or more miles (16+ km)
Ceiling: at least 12,000 feet AGL
Clouds: sky clear below 12,000 feet AGL
Present Weather: no significant weather observed at this time
KSRQ 162253Z 27007KT 10SM CLR 31/24 A3002 RMK AO2 SLP165 T03110239

Conditions at: KSRQ observed 16 July 2018  21:53 UTC
Temperature: 31.1°C (88°F)
Dewpoint: 23.9°C (75°F) [RH = 66%]
Pressure (altimeter): 30.03 inches Hg (1017.0 mb)
[Sea-level pressure: 1016.7 mb]
Winds: from the WSW (250 degrees) at 9 MPH (8 knots; 4.2 m/s)
Visibility: 10 or more miles (16+ km)
Ceiling: at least 12,000 feet AGL
Clouds: sky clear below 12,000 feet AGL
Present Weather: automated observation with no human augmentation;
there may or may not be significant weather present at this time
KSRQ 162153Z AUTO 25008KT 10SM CLR 31/24 A3003 RMK AO2 LTG DSNT NE SLP167 T03110239

Conditions at: KSRQ observed 16 July 2018  20:53 UTC
Temperature: 32.2°C (90°F)
Dewpoint: 24.4°C (76°F) [RH = 64%]
Pressure (altimeter): 30.03 inches Hg (1017.0 mb)
[Sea-level pressure: 1016.9 mb]
Winds: from the W (270 degrees) at 12 MPH (10 knots; 5.2 m/s)
Visibility: 10 or more miles (16+ km)
Ceiling: at least 12,000 feet AGL
Clouds: sky clear below 12,000 feet AGL
Present Weather: automated observation with no human augmentation;
there may or may not be significant weather present at this time
KSRQ 162053Z AUTO 27010KT 10SM CLR 32/24 A3003 RMK AO2 LTG DSNT NE-SE SLP169 T03220244 55012

Conditions at: KSRQ observed 16 July 2018  19:53 UTC
Temperature: 32.2°C (90°F)
Dewpoint: 25.0°C (77°F) [RH = 66%]
Pressure (altimeter): 30.03 inches Hg (1017.0 mb)
[Sea-level pressure: 1016.8 mb]
Winds: from the WSW (250 degrees) at 13 MPH (11 knots; 5.7 m/s)
Visibility: 10 or more miles (16+ km)
Ceiling: at least 12,000 feet AGL
Clouds: sky clear below 12,000 feet AGL
Present Weather: no significant weather observed at this time
KSRQ 161953Z 25011KT 10SM CLR 32/25 A3003 RMK AO2 LTG DSNT E SLP168 T03220250

Conditions at: KSRQ observed 16 July 2018  18:53 UTC
Temperature: 32.2°C (90°F)
Dewpoint: 23.9°C (75°F) [RH = 62%]
Pressure (altimeter): 30.05 inches Hg (1017.7 mb)
[Sea-level pressure: 1017.4 mb]
Winds: from the W (270 degrees) at 13 MPH (11 knots; 5.7 m/s)
Visibility: 10 or more miles (16+ km)
Ceiling: at least 12,000 feet AGL
Clouds: sky clear below 12,000 feet AGL
Present Weather: no significant weather observed at this time
KSRQ 161853Z 27011KT 10SM CLR 32/24 A3005 RMK AO2 LTG DSNT SE SLP174 T03220239

Conditions at: KSRQ observed 16 July 2018  17:53 UTC
Temperature: 32.2°C (90°F)
Dewpoint: 23.3°C (74°F) [RH = 59%]
Pressure (altimeter): 30.07 inches Hg (1018.4 mb)
[Sea-level pressure: 1018.1 mb]
Winds: from the WSW (240 degrees) at 10 MPH (9 knots; 4.7 m/s)
Visibility: 10 or more miles (16+ km)
Ceiling: at least 12,000 feet AGL
Clouds: sky clear below 12,000 feet AGL
Present Weather: no significant weather observed at this time
KSRQ 161753Z 24009KT 10SM CLR 32/23 A3007 RMK AO2 SLP181 T03220233 10322 20272 58003

Conditions at: KSRQ observed 16 July 2018  16:53 UTC
Temperature: 32.2°C (90°F)
Dewpoint: 24.4°C (76°F) [RH = 64%]
Pressure (altimeter): 30.08 inches Hg (1018.7 mb)
[Sea-level pressure: 1018.5 mb]
Winds: from the SW (230 degrees) at 10 MPH (9 knots; 4.7 m/s)
Visibility: 10 or more miles (16+ km)
Ceiling: at least 12,000 feet AGL
Clouds: sky clear below 12,000 feet AGL
Present Weather: no significant weather observed at this time
KSRQ 161653Z 23009KT 10SM CLR 32/24 A3008 RMK AO2 SLP185 T03220244

Conditions at: KSRQ observed 16 July 2018  15:53 UTC
Temperature: 31.7°C (89°F)
Dewpoint: 24.4°C (76°F) [RH = 65%]
Pressure (altimeter): 30.08 inches Hg (1018.7 mb)
[Sea-level pressure: 1018.5 mb]
Winds: from the SW (230 degrees) at 7 MPH (6 knots; 3.1 m/s)
Visibility: 10 or more miles (16+ km)
Ceiling: at least 12,000 feet AGL
Clouds: sky clear below 12,000 feet AGL
Present Weather: no significant weather observed at this time
KSRQ 161553Z 23006KT 10SM CLR 32/24 A3008 RMK AO2 SLP185 T03170244

Conditions at: KSRQ observed 16 July 2018  14:53 UTC
Temperature: 30.0°C (86°F)
Dewpoint: 23.9°C (75°F) [RH = 70%]
Pressure (altimeter): 30.08 inches Hg (1018.7 mb)
[Sea-level pressure: 1018.4 mb]
Winds: from the SW (230 degrees) at 6 MPH (5 knots; 2.6 m/s)
Visibility: 10 or more miles (16+ km)
Ceiling: at least 12,000 feet AGL
Clouds: few clouds at 3100 feet AGL
Present Weather: no significant weather observed at this time
KSRQ 161453Z 23005KT 10SM FEW031 30/24 A3008 RMK AO2 SLP184 T03000239 51009

Conditions at: KSRQ observed 16 July 2018  13:53 UTC
Temperature: 31.1°C (88°F)
Dewpoint: 24.4°C (76°F) [RH = 68%]
Pressure (altimeter): 30.08 inches Hg (1018.7 mb)
[Sea-level pressure: 1018.3 mb]
Winds: variable direction winds at 3 MPH (3 knots; 1.6 m/s)
Visibility: 10 or more miles (16+ km)
Ceiling: at least 12,000 feet AGL
Clouds: sky clear below 12,000 feet AGL
Present Weather: no significant weather observed at this time
KSRQ 161353Z VRB03KT 10SM CLR 31/24 A3008 RMK AO2 LTG DSNT NW SLP183 T03110244

Conditions at: KSRQ observed 16 July 2018  12:53 UTC
Temperature: 29.4°C (85°F)
Dewpoint: 25.0°C (77°F) [RH = 77%]
Pressure (altimeter): 30.07 inches Hg (1018.4 mb)
[Sea-level pressure: 1018.2 mb]
Winds: from the E (100 degrees) at 6 MPH (5 knots; 2.6 m/s)
Visibility: 10 or more miles (16+ km)
Ceiling: at least 12,000 feet AGL
Clouds: sky clear below 12,000 feet AGL
Present Weather: no significant weather observed at this time
KSRQ 161253Z 10005KT 10SM CLR 29/25 A3007 RMK AO2 LTG DSNT SW SLP182 T02940250

Conditions at: KSRQ observed 16 July 2018  11:53 UTC
Temperature: 27.2°C (81°F)
Dewpoint: 24.4°C (76°F) [RH = 85%]
Pressure (altimeter): 30.05 inches Hg (1017.7 mb)
[Sea-level pressure: 1017.5 mb]
Winds: from the E (80 degrees) at 3 MPH (3 knots; 1.6 m/s)
Visibility: 10 or more miles (16+ km)
Ceiling: at least 12,000 feet AGL
Clouds: sky clear below 12,000 feet AGL
Present Weather: no significant weather observed at this time
KSRQ 161153Z 08003KT 10SM CLR 27/24 A3005 RMK AO2 SLP175 T02720244 10272 20250 53010

Conditions at: KSRQ observed 16 July 2018  10:53 UTC
Temperature: 25.6°C (78°F)
Dewpoint: 23.9°C (75°F) [RH = 90%]
Pressure (altimeter): 30.03 inches Hg (1017.0 mb)
[Sea-level pressure: 1016.9 mb]
Winds: calm
Visibility: 10 or more miles (16+ km)
Ceiling: at least 12,000 feet AGL
Clouds: sky clear below 12,000 feet AGL
Present Weather: automated observation with no human augmentation;
there may or may not be significant weather present at this time
KSRQ 161053Z AUTO 00000KT 10SM CLR 26/24 A3003 RMK AO2 SLP169 T02560239

Conditions at: KSRQ observed 16 July 2018  09:53 UTC
Temperature: 25.6°C (78°F)
Dewpoint: 23.9°C (75°F) [RH = 90%]
Pressure (altimeter): 30.02 inches Hg (1016.7 mb)
[Sea-level pressure: 1016.6 mb]
Winds: from the SE (130 degrees) at 3 MPH (3 knots; 1.6 m/s)
Visibility: 10 or more miles (16+ km)
Ceiling: at least 12,000 feet AGL
Clouds: sky clear below 12,000 feet AGL
Present Weather: automated observation with no human augmentation;
there may or may not be significant weather present at this time
KSRQ 160953Z AUTO 13003KT 10SM CLR 26/24 A3002 RMK AO2 SLP166 T02560239

Conditions at: KSRQ observed 16 July 2018  08:53 UTC
Temperature: 25.6°C (78°F)
Dewpoint: 24.4°C (76°F) [RH = 93%]
Pressure (altimeter): 30.02 inches Hg (1016.7 mb)
[Sea-level pressure: 1016.4 mb]
Winds: calm
Visibility: 10 or more miles (16+ km)
Ceiling: at least 12,000 feet AGL
Clouds: sky clear below 12,000 feet AGL
Present Weather: automated observation with no human augmentation;
there may or may not be significant weather present at this time
KSRQ 160853Z AUTO 00000KT 10SM CLR 26/24 A3002 RMK AO2 SLP164 T02560244 56006

Conditions at: KSRQ observed 16 July 2018  07:53 UTC
Temperature: 26.1°C (79°F)
Dewpoint: 24.4°C (76°F) [RH = 90%]
Pressure (altimeter): 30.02 inches Hg (1016.7 mb)
[Sea-level pressure: 1016.4 mb]
Winds: from the ESE (110 degrees) at 3 MPH (3 knots; 1.6 m/s)
Visibility: 10 or more miles (16+ km)
Ceiling: at least 12,000 feet AGL
Clouds: sky clear below 12,000 feet AGL
Present Weather: automated observation with no human augmentation;
there may or may not be significant weather present at this time
KSRQ 160753Z AUTO 11003KT 10SM CLR 26/24 A3002 RMK AO2 SLP164 T02610244

Conditions at: KSRQ observed 16 July 2018  06:53 UTC
Temperature: 26.1°C (79°F)
Dewpoint: 24.4°C (76°F) [RH = 90%]
Pressure (altimeter): 30.03 inches Hg (1017.0 mb)
[Sea-level pressure: 1016.9 mb]
Winds: calm
Visibility: 10 or more miles (16+ km)
Ceiling: at least 12,000 feet AGL
Clouds: few clouds at 7000 feet AGL
Present Weather: automated observation with no human augmentation;
there may or may not be significant weather present at this time
KSRQ 160653Z AUTO 00000KT 10SM FEW070 26/24 A3003 RMK AO2 SLP169 T02610244

Conditions at: KSRQ observed 16 July 2018  05:53 UTC
Temperature: 26.7°C (80°F)
Dewpoint: 24.4°C (76°F) [RH = 87%]
Pressure (altimeter): 30.04 inches Hg (1017.4 mb)
[Sea-level pressure: 1017.1 mb]
Winds: from the E (100 degrees) at 6 MPH (5 knots; 2.6 m/s)
Visibility: 10 or more miles (16+ km)
Ceiling: at least 12,000 feet AGL
Clouds: scattered clouds at 2700 feet AGL
Present Weather: automated observation with no human augmentation;
there may or may not be significant weather present at this time
KSRQ 160553Z AUTO 10005KT 10SM SCT027 27/24 A3004 RMK AO2 SLP171 T02670244 10300 20267 58003

Conditions at: KSRQ observed 16 July 2018  04:53 UTC
Temperature: 27.8°C (82°F)
Dewpoint: 23.9°C (75°F) [RH = 79%]
Pressure (altimeter): 30.05 inches Hg (1017.7 mb)
[Sea-level pressure: 1017.6 mb]
Winds: calm
Visibility: 10 or more miles (16+ km)
Ceiling: at least 12,000 feet AGL
Clouds: sky clear below 12,000 feet AGL
Present Weather: automated observation with no human augmentation;
there may or may not be significant weather present at this time
KSRQ 160453Z AUTO 00000KT 10SM CLR 28/24 A3005 RMK AO2 SLP176 T02780239 403280239

Conditions at: KSRQ observed 16 July 2018  03:53 UTC
Temperature: 27.8°C (82°F)
Dewpoint: 23.9°C (75°F) [RH = 79%]
Pressure (altimeter): 30.06 inches Hg (1018.0 mb)
[Sea-level pressure: 1017.8 mb]
Winds: from the N (360 degrees) at 3 MPH (3 knots; 1.6 m/s)
Visibility: 10 or more miles (16+ km)
Ceiling: at least 12,000 feet AGL
Clouds: few clouds at 6500 feet AGL
Present Weather: no significant weather observed at this time
KSRQ 160353Z 36003KT 10SM FEW065 28/24 A3006 RMK AO2 LTG DSNT E SLP178 T02780239

Conditions at: KSRQ observed 16 July 2018  02:53 UTC
Temperature: 28.3°C (83°F)
Dewpoint: 23.9°C (75°F) [RH = 77%]
Pressure (altimeter): 30.05 inches Hg (1017.7 mb)
[Sea-level pressure: 1017.4 mb]
Winds: from the N (350 degrees) at 3 MPH (3 knots; 1.6 m/s)
Visibility: 10 or more miles (16+ km)
Ceiling: at least 12,000 feet AGL
Clouds: sky clear below 12,000 feet AGL
Present Weather: no significant weather observed at this time
KSRQ 160253Z 35003KT 10SM CLR 28/24 A3005 RMK AO2 SLP174 T02830239 53016

Conditions at: KSRQ observed 16 July 2018  01:53 UTC
Temperature: 28.3°C (83°F)
Dewpoint: 23.9°C (75°F) [RH = 77%]
Pressure (altimeter): 30.02 inches Hg (1016.7 mb)
[Sea-level pressure: 1016.5 mb]
Winds: from the NW (310 degrees) at 6 MPH (5 knots; 2.6 m/s)
Visibility: 10 or more miles (16+ km)
Ceiling: at least 12,000 feet AGL
Clouds: sky clear below 12,000 feet AGL
Present Weather: no significant weather observed at this time
KSRQ 160153Z 31005KT 10SM CLR 28/24 A3002 RMK AO2 SLP165 T02830239

Conditions at: KSRQ observed 16 July 2018  00:53 UTC
Temperature: 28.9°C (84°F)
Dewpoint: 23.3°C (74°F) [RH = 72%]
Pressure (altimeter): 30.01 inches Hg (1016.3 mb)
[Sea-level pressure: 1016.2 mb]
Winds: from the WNW (290 degrees) at 5 MPH (4 knots; 2.1 m/s)
Visibility: 10 or more miles (16+ km)
Ceiling: at least 12,000 feet AGL
Clouds: sky clear below 12,000 feet AGL
Present Weather: no significant weather observed at this time
KSRQ 160053Z 29004KT 10SM CLR 29/23 A3001 RMK AO2 LTG DSNT E SLP162 T02890233

Conditions at: KSRQ observed 15 July 2018  23:53 UTC
Temperature: 30.0°C (86°F)
Dewpoint: 23.3°C (74°F) [RH = 67%]
Pressure (altimeter): 30.00 inches Hg (1016.0 mb)
[Sea-level pressure: 1015.8 mb]
Winds: from the WNW (290 degrees) at 5 MPH (4 knots; 2.1 m/s)
Visibility: 10 or more miles (16+ km)
Ceiling: at least 12,000 feet AGL
Clouds: sky clear below 12,000 feet AGL
Present Weather: no significant weather observed at this time
KSRQ 152353Z 29004KT 10SM CLR 30/23 A3000 RMK AO2 LTG DSNT NE AND E SLP158 T03000233 10322 20300 55004

Conditions at: KSRQ observed 15 July 2018  22:53 UTC
Temperature: 31.1°C (88°F)
Dewpoint: 23.9°C (75°F) [RH = 66%]
Pressure (altimeter): 29.99 inches Hg (1015.7 mb)
[Sea-level pressure: 1015.6 mb]
Winds: from the WNW (300 degrees) at 9 MPH (8 knots; 4.2 m/s)
Visibility: 10 or more miles (16+ km)
Ceiling: at least 12,000 feet AGL
Clouds: sky clear below 12,000 feet AGL
Present Weather: no significant weather observed at this time
KSRQ 152253Z 30008KT 10SM CLR 31/24 A2999 RMK AO2 LTG DSNT E SLP156 T03110239

Conditions at: KSRQ observed 15 July 2018  21:53 UTC
Temperature: 31.7°C (89°F)
Dewpoint: 23.3°C (74°F) [RH = 61%]
Pressure (altimeter): 29.99 inches Hg (1015.7 mb)
[Sea-level pressure: 1015.6 mb]
Winds: from the W (260 degrees) at 9 MPH (8 knots; 4.2 m/s)
Visibility: 10 or more miles (16+ km)
Ceiling: at least 12,000 feet AGL
Clouds: sky clear below 12,000 feet AGL
Present Weather: automated observation with no human augmentation;
there may or may not be significant weather present at this time
KSRQ 152153Z AUTO 26008KT 10SM CLR 32/23 A2999 RMK AO2 SLP156 T03170233

Conditions at: KSRQ observed 15 July 2018  20:53 UTC
Temperature: 31.7°C (89°F)
Dewpoint: 24.4°C (76°F) [RH = 65%]
Pressure (altimeter): 30.01 inches Hg (1016.3 mb)
[Sea-level pressure: 1016.2 mb]
Winds: from the W (280 degrees) at 10 MPH (9 knots; 4.7 m/s)
Visibility: 10 or more miles (16+ km)
Ceiling: at least 12,000 feet AGL
Clouds: sky clear below 12,000 feet AGL
Present Weather: automated observation with no human augmentation;
there may or may not be significant weather present at this time
KSRQ 152053Z AUTO 28009KT 10SM CLR 32/24 A3001 RMK AO2 SLP162 T03170244 56016

Conditions at: KSRQ observed 15 July 2018  19:53 UTC
Temperature: 32.2°C (90°F)
Dewpoint: 25.0°C (77°F) [RH = 66%]
Pressure (altimeter): 30.02 inches Hg (1016.7 mb)
[Sea-level pressure: 1016.4 mb]
Winds: from the WNW (290 degrees) at 9 MPH (8 knots; 4.2 m/s)
Visibility: 10 or more miles (16+ km)
Ceiling: at least 12,000 feet AGL
Clouds: sky clear below 12,000 feet AGL
Present Weather: no significant weather observed at this time
KSRQ 151953Z 29008KT 10SM CLR 32/25 A3002 RMK AO2 SLP164 T03220250

Conditions at: KSRQ observed 15 July 2018  18:53 UTC
Temperature: 31.7°C (89°F)
Dewpoint: 23.9°C (75°F) [RH = 63%]
Pressure (altimeter): 30.04 inches Hg (1017.4 mb)
[Sea-level pressure: 1017.0 mb]
Winds: from the NW (310 degrees) at 8 MPH (7 knots; 3.6 m/s)
Visibility: 10 or more miles (16+ km)
Ceiling: at least 12,000 feet AGL
Clouds: sky clear below 12,000 feet AGL
Present Weather: no significant weather observed at this time
KSRQ 151853Z 31007KT 10SM CLR 32/24 A3004 RMK AO2 TSE1755 SLP170 T03170239

Conditions at: KSRQ observed 15 July 2018  18:28 UTC
Temperature: 32.2°C (90°F)
Dewpoint: 23.9°C (75°F) [RH = 62%]
Pressure (altimeter): 30.05 inches Hg (1017.7 mb)
Winds: from the W (280 degrees) at 9 MPH (8 knots; 4.2 m/s)
Visibility: 10 or more miles (16+ km)
Ceiling: at least 12,000 feet AGL
Clouds: sky clear below 12,000 feet AGL
Present Weather: no significant weather observed at this time
KSRQ 151828Z 28008KT 10SM CLR 32/24 A3005 RMK AO2 TSE1755 T03220239

Conditions at: KSRQ observed 15 July 2018  18:01 UTC
Temperature: 32.2°C (90°F)
Dewpoint: 23.9°C (75°F) [RH = 62%]
Pressure (altimeter): 30.06 inches Hg (1018.0 mb)
Winds: from the NW (310 degrees) at 9 MPH (8 knots; 4.2 m/s)
Visibility: 10 or more miles (16+ km)
Ceiling: at least 12,000 feet AGL
Clouds: sky clear below 12,000 feet AGL
Present Weather: VCTS  (thunderstorm in vicinity)
KSRQ 151801Z 31008KT 10SM VCTS CLR 32/24 A3006 RMK AO2 LTG DSNT N TSE1755 T03220239

Conditions at: KSRQ observed 15 July 2018  17:53 UTC
Temperature: 31.7°C (89°F)
Dewpoint: 23.9°C (75°F) [RH = 63%]
Pressure (altimeter): 30.06 inches Hg (1018.0 mb)
[Sea-level pressure: 1017.8 mb]
Winds: from the WNW (300 degrees) at 10 MPH (9 knots; 4.7 m/s)
Visibility: 10 or more miles (16+ km)
Ceiling: at least 12,000 feet AGL
Clouds: few clouds at 12000 feet AGL
Present Weather: TS  (thunderstorm)
KSRQ 151753Z 30009KT 10SM TS FEW120 32/24 A3006 RMK AO2 LTG DSNT N AND NE TSB1655B40 SLP178 T03170239 10328 20256 58000

Conditions at: KSRQ observed 15 July 2018  17:46 UTC
Temperature: 31.7°C (89°F)
Dewpoint: 24.4°C (76°F) [RH = 65%]
Pressure (altimeter): 30.06 inches Hg (1018.0 mb)
Winds: from the NW (310 degrees) at 9 MPH (8 knots; 4.2 m/s)
Visibility: 10 or more miles (16+ km)
Ceiling: at least 12,000 feet AGL
Clouds: scattered clouds at 11000 feet AGL
Present Weather: TS  (thunderstorm)
KSRQ 151746Z 31008KT 10SM TS SCT110 32/24 A3006 RMK AO2 LTG DSNT N AND NE TSB1655B40 T03170244

Conditions at: KSRQ observed 15 July 2018  17:29 UTC
Temperature: 31.7°C (89°F)
Dewpoint: 24.4°C (76°F) [RH = 65%]
Pressure (altimeter): 30.07 inches Hg (1018.4 mb)
Winds: from the WNW (290 degrees) at 12 MPH (10 knots; 5.2 m/s)
Visibility: 10 or more miles (16+ km)
Ceiling: 11000 feet AGL
Clouds: few clouds at 7500 feet AGL
broken clouds at 11000 feet AGL
Present Weather: VCTS  (thunderstorm in vicinity)
KSRQ 151729Z 29010KT 10SM VCTS FEW075 BKN110 32/24 A3007 RMK AO2 LTG DSNT N TSB1655 T03170244

Conditions at: KSRQ observed 15 July 2018  17:16 UTC
Temperature: 30.6°C (87°F)
Dewpoint: 24.4°C (76°F) [RH = 70%]
Pressure (altimeter): 30.07 inches Hg (1018.4 mb)
Winds: from the WNW (300 degrees) at 9 MPH (8 knots; 4.2 m/s)
Visibility: 10 or more miles (16+ km)
Ceiling: 11000 feet AGL
Clouds: few clouds at 7500 feet AGL
broken clouds at 11000 feet AGL
Present Weather: no significant weather observed at this time
KSRQ 151716Z 30008KT 10SM FEW075 BKN110 31/24 A3007 RMK AO2 LTG DSNT N TSB1655 T03060244

Conditions at: KSRQ observed 15 July 2018  17:01 UTC
Temperature: 31.7°C (89°F)
Dewpoint: 23.3°C (74°F) [RH = 61%]
Pressure (altimeter): 30.06 inches Hg (1018.0 mb)
Winds: from the WNW (290 degrees) at 9 MPH (8 knots; 4.2 m/s)
Visibility: 10 or more miles (16+ km)
Ceiling: at least 12,000 feet AGL
Clouds: few clouds at 10000 feet AGL
Present Weather: TS  (thunderstorm)
KSRQ 151701Z 29008KT 10SM TS FEW100 32/23 A3006 RMK AO2 LTG DSNT N AND NW TSB1655 T03170233

Conditions at: KSRQ observed 15 July 2018  16:53 UTC
Temperature: 32.2°C (90°F)
Dewpoint: 23.3°C (74°F) [RH = 59%]
Pressure (altimeter): 30.06 inches Hg (1018.0 mb)
[Sea-level pressure: 1017.8 mb]
Winds: from the WSW (250 degrees) at 10 MPH (9 knots; 4.7 m/s)
Visibility: 10 or more miles (16+ km)
Ceiling: at least 12,000 feet AGL
Clouds: scattered clouds at 3700 feet AGL
scattered clouds at 4800 feet AGL
Present Weather: no significant weather observed at this time
KSRQ 151653Z 25009KT 10SM SCT037 SCT048 32/23 A3006 RMK AO2 LTG DSNT N AND NW SLP178 T03220233

Conditions at: KSRQ observed 15 July 2018  15:53 UTC
Temperature: 31.7°C (89°F)
Dewpoint: 23.9°C (75°F) [RH = 63%]
Pressure (altimeter): 30.07 inches Hg (1018.4 mb)
[Sea-level pressure: 1018.0 mb]
Winds: calm
Visibility: 10 or more miles (16+ km)
Ceiling: 10000 feet AGL
Clouds: scattered clouds at 3500 feet AGL
broken clouds at 10000 feet AGL
Present Weather: no significant weather observed at this time
KSRQ 151553Z 00000KT 10SM SCT035 BKN100 32/24 A3007 RMK AO2 SLP180 T03170239

Conditions at: KSRQ observed 15 July 2018  14:53 UTC
Temperature: 30.0°C (86°F)
Dewpoint: 23.3°C (74°F) [RH = 67%]
Pressure (altimeter): 30.06 inches Hg (1018.0 mb)
[Sea-level pressure: 1017.9 mb]
Winds: calm
Visibility: 10 or more miles (16+ km)
Ceiling: at least 12,000 feet AGL
Clouds: few clouds at 3300 feet AGL
Present Weather: no significant weather observed at this time
KSRQ 151453Z 00000KT 10SM FEW033 30/23 A3006 RMK AO2 SLP179 T03000233 50004

Conditions at: KSRQ observed 15 July 2018  13:53 UTC
Temperature: 30.0°C (86°F)
Dewpoint: 24.4°C (76°F) [RH = 72%]
Pressure (altimeter): 30.06 inches Hg (1018.0 mb)
[Sea-level pressure: 1018.0 mb]
Winds: from the E (80 degrees) at 6 MPH (5 knots; 2.6 m/s)
Visibility: 10 or more miles (16+ km)
Ceiling: at least 12,000 feet AGL
Clouds: sky clear below 12,000 feet AGL
Present Weather: no significant weather observed at this time
KSRQ 151353Z 08005KT 10SM CLR 30/24 A3006 RMK AO2 SLP180 T03000244

Conditions at: KSRQ observed 15 July 2018  12:53 UTC
Temperature: 27.8°C (82°F)
Dewpoint: 23.9°C (75°F) [RH = 79%]
Pressure (altimeter): 30.06 inches Hg (1018.0 mb)
[Sea-level pressure: 1017.9 mb]
Winds: calm
Visibility: 10 or more miles (16+ km)
Ceiling: at least 12,000 feet AGL
Clouds: sky clear below 12,000 feet AGL
Present Weather: no significant weather observed at this time
KSRQ 151253Z 00000KT 10SM CLR 28/24 A3006 RMK AO2 SLP179 T02780239

Conditions at: KSRQ observed 15 July 2018  11:53 UTC
Temperature: 25.6°C (78°F)
Dewpoint: 25.0°C (77°F) [RH = 96%]
Pressure (altimeter): 30.05 inches Hg (1017.7 mb)
[Sea-level pressure: 1017.4 mb]
Winds: calm
Visibility: 10 or more miles (16+ km)
Ceiling: at least 12,000 feet AGL
Clouds: sky clear below 12,000 feet AGL
Present Weather: no significant weather observed at this time
KSRQ 151153Z 00000KT 10SM CLR 26/25 A3005 RMK AO2 SLP174 70032 T02560250 10256 20239 53010

Conditions at: KSRQ observed 15 July 2018  10:53 UTC
Temperature: 24.4°C (76°F)
Dewpoint: 23.9°C (75°F) [RH = 97%]
Pressure (altimeter): 30.03 inches Hg (1017.0 mb)
[Sea-level pressure: 1017.0 mb]
Winds: calm
Visibility: 10 or more miles (16+ km)
Ceiling: at least 12,000 feet AGL
Clouds: sky clear below 12,000 feet AGL
Present Weather: no significant weather observed at this time
KSRQ 151053Z 00000KT 10SM CLR 24/24 A3003 RMK AO2 LTG DSNT SW SLP170 T02440239

Conditions at: KSRQ observed 15 July 2018  09:53 UTC
Temperature: 24.4°C (76°F)
Dewpoint: 23.9°C (75°F) [RH = 97%]
Pressure (altimeter): 30.02 inches Hg (1016.7 mb)
[Sea-level pressure: 1016.5 mb]
Winds: from the NNW (330 degrees) at 3 MPH (3 knots; 1.6 m/s)
Visibility: 10 or more miles (16+ km)
Ceiling: at least 12,000 feet AGL
Clouds: sky clear below 12,000 feet AGL
Present Weather: no significant weather observed at this time
KSRQ 150953Z 33003KT 10SM CLR 24/24 A3002 RMK AO2 SLP165 T02440239

Conditions at: KSRQ observed 15 July 2018  08:53 UTC
Temperature: 24.4°C (76°F)
Dewpoint: 24.4°C (76°F) [RH = 100%]
Pressure (altimeter): 30.02 inches Hg (1016.7 mb)
[Sea-level pressure: 1016.4 mb]
Winds: from the E (100 degrees) at 5 MPH (4 knots; 2.1 m/s)
Visibility: 10 or more miles (16+ km)
Ceiling: at least 12,000 feet AGL
Clouds: sky clear below 12,000 feet AGL
Present Weather: automated observation with no human augmentation;
there may or may not be significant weather present at this time
KSRQ 150853Z AUTO 10004KT 10SM CLR 24/24 A3002 RMK AO2 LTG DSNT NW SLP164 T02440244 56008

Conditions at: KSRQ observed 15 July 2018  07:53 UTC
Temperature: 25.0°C (77°F)
Dewpoint: 24.4°C (76°F) [RH = 96%]
Pressure (altimeter): 30.02 inches Hg (1016.7 mb)
[Sea-level pressure: 1016.4 mb]
Winds: from the ESE (110 degrees) at 5 MPH (4 knots; 2.1 m/s)
Visibility: 10 or more miles (16+ km)
Ceiling: at least 12,000 feet AGL
Clouds: sky clear below 12,000 feet AGL
Present Weather: automated observation with no human augmentation;
there may or may not be significant weather present at this time
KSRQ 150753Z AUTO 11004KT 10SM CLR 25/24 A3002 RMK AO2 SLP164 T02500244

Conditions at: KSRQ observed 15 July 2018  06:53 UTC
Temperature: 25.0°C (77°F)
Dewpoint: 24.4°C (76°F) [RH = 96%]
Pressure (altimeter): 30.02 inches Hg (1016.7 mb)
[Sea-level pressure: 1016.6 mb]
Winds: from the SE (130 degrees) at 3 MPH (3 knots; 1.6 m/s)
Visibility: 10 or more miles (16+ km)
Ceiling: at least 12,000 feet AGL
Clouds: sky clear below 12,000 feet AGL
Present Weather: automated observation with no human augmentation;
there may or may not be significant weather present at this time
KSRQ 150653Z AUTO 13003KT 10SM CLR 25/24 A3002 RMK AO2 SLP166 T02500244

Conditions at: KSRQ observed 15 July 2018  05:53 UTC
Temperature: 25.6°C (78°F)
Dewpoint: 24.4°C (76°F) [RH = 93%]
Pressure (altimeter): 30.04 inches Hg (1017.4 mb)
[Sea-level pressure: 1017.2 mb]
Winds: from the ESE (120 degrees) at 5 MPH (4 knots; 2.1 m/s)
Visibility: 10 or more miles (16+ km)
Ceiling: at least 12,000 feet AGL
Clouds: sky clear below 12,000 feet AGL
Present Weather: automated observation with no human augmentation;
there may or may not be significant weather present at this time
KSRQ 150553Z AUTO 12004KT 10SM CLR 26/24 A3004 RMK AO2 SLP172 T02560244 10272 20250 58006

Conditions at: KSRQ observed 15 July 2018  04:53 UTC
Temperature: 26.1°C (79°F)
Dewpoint: 25.0°C (77°F) [RH = 94%]
Pressure (altimeter): 30.05 inches Hg (1017.7 mb)
[Sea-level pressure: 1017.4 mb]
Winds: calm
Visibility: 10 or more miles (16+ km)
Ceiling: at least 12,000 feet AGL
Clouds: sky clear below 12,000 feet AGL
Present Weather: automated observation with no human augmentation;
there may or may not be significant weather present at this time
KSRQ 150453Z AUTO 00000KT 10SM CLR 26/25 A3005 RMK AO2 SLP174 T02610250 403330244